Wildsville, LA (71377)

6:56 PM CDT on September 18, 2014 (GMT -0500)
Hardy-Anders-Adams County | Change Station
CLOSE
Current Station
Airport
Location: Natchez,
Elevation: 272 ft
Nearby Weather Stations

Elev 272 ft 31.62 °N, 91.30 °W | Updated 21 minutes ago

Clear
Clear
81 °F
Feels Like 85 °F
N
4
Wind Variable Wind from ENE

Today
High -- | Low -- °F
--% Chance of Precip.
Yesterday
High -- | Low -- °F
Precip. -- in
6:52 AM 7:08 PM
Waning Crescent, 23% visible
Pressure 29.90 in
Visibility 10.0 miles
Clouds Clear
Heat Index 85 °F
Dew Point 73 °F
Humidity 79%
Rainfall 0.00 in
Snow Depth Not available.
UV 0 out of 12
Pollen 9.90 out of 12
Air Quality Not available.
Flu Activity Not available.
METAR KHEZ 182335Z AUTO 07003KT 10SM CLR 27/23 A2990 RMK AO1

More Conditions Fewer Conditions

Pressure 29.90 in
Visibility 10.0 miles
Clouds Clear
Heat Index 85 °F
Dew Point 73 °F
Humidity 79%
Rainfall 0.00 in
Snow Depth Not available.
UV 0 out of 12
Pollen 9.90 out of 12
Air Quality Not available.
Flu Activity Not available.
METAR KHEZ 182335Z AUTO 07003KT 10SM CLR 27/23 A2990 RMK AO1

More Conditions Fewer Conditions

10-Day Weather Forecast

Almanac

Astronomy

Sep. 18, 2014 Rise Set
Actual Time 6:52 AM CDT 7:08 PM CDT
Civil Twilight 6:28 AM CDT 7:33 PM CDT
Nautical Twilight 6:00 AM CDT 8:01 PM CDT
Astronomical Twilight 5:31 AM CDT 8:30 PM CDT
Moon 1:59 AM CDT 3:47 PM CDT
Length of Visible Light 13h 04m
Length of Day
12h 15m
Tomorrow will be 1m 55s shorter.
Waning Crescent, 23% of the Moon is Illuminated
Today
Waning Crescent
Sep 24
New
Oct 1
First Quarter
Oct 8
Full
Oct 15
Last Quarter

Today's Extremes

State Highs State Lows

Community

WunderPhotos

Upload Photos

1,754,489 photos uploaded!

WunderBlogs® & News

Nearby

Snow Depth

Station Depth Elevation
No new snow has been reported.

Earthquake Activity

City Distance Mag. Time & Date
No recent earthquake activity has been reported nearby.
Minimum magnitude displayed is 2.5.

Coastal Water Temperatures

Place Temperature
No Stations Reporting

Nearby Weather Stations